createdAt,value
2023-01-22T00:01:05.535Z,98449.25
2023-01-22T00:03:33.609Z,98447.47
2023-01-22T00:06:01.169Z,98450.75
2023-01-22T00:08:28.663Z,98451.19
2023-01-22T00:10:56.731Z,98450.47
2023-01-22T00:13:25.393Z,98459.72
2023-01-22T00:15:53.432Z,98460.66
2023-01-22T00:18:21.031Z,98458.47
2023-01-22T00:20:50.081Z,98457.38
2023-01-22T00:23:17.979Z,98460.38
2023-01-22T00:25:45.979Z,98467.28
2023-01-22T00:28:14.307Z,98465.34
2023-01-22T00:30:41.847Z,98452.28
2023-01-22T00:33:09.472Z,98458.47
2023-01-22T00:35:37.007Z,98460.81
2023-01-22T00:38:05.161Z,98475.53
2023-01-22T00:40:32.994Z,98470.47
2023-01-22T00:43:00.480Z,98465.50
2023-01-22T00:45:28.066Z,98467.69
2023-01-22T00:47:55.594Z,98466.88
2023-01-22T00:50:23.201Z,98478.03
2023-01-22T00:52:50.741Z,98476.25
2023-01-22T00:55:18.324Z,98486.84
2023-01-22T00:57:45.939Z,98482.16
2023-01-22T01:00:18.528Z,98485.19
2023-01-22T01:03:06.743Z,98484.75
2023-01-22T01:05:34.359Z,98485.19
2023-01-22T01:08:01.871Z,98490.69
2023-01-22T01:10:29.431Z,98487.81
2023-01-22T01:12:57.002Z,98488.06
2023-01-22T01:15:24.686Z,98485.88
2023-01-22T01:17:52.262Z,98492.75
2023-01-22T01:20:20.032Z,98497.72
2023-01-22T01:22:47.728Z,98483.53
2023-01-22T01:25:15.238Z,98494.84
2023-01-22T01:27:42.783Z,98485.19
2023-01-22T01:30:10.929Z,98484.75
2023-01-22T01:32:38.540Z,98488.34
2023-01-22T01:35:06.722Z,98494.00
2023-01-22T01:37:34.222Z,98481.75
2023-01-22T01:40:01.961Z,98478.31
2023-01-22T01:42:38.611Z,98487.25
2023-01-22T01:45:24.583Z,98471.84
2023-01-22T01:48:03.008Z,98475.28
2023-01-22T01:50:31.031Z,98487.38
2023-01-22T01:53:00.690Z,98485.63
2023-01-22T01:55:31.781Z,98479.25
2023-01-22T01:58:04.667Z,98486.97
2023-01-22T02:00:35.447Z,98487.53
2023-01-22T02:03:03.340Z,98493.03
2023-01-22T02:05:36.753Z,98513.84
2023-01-22T02:08:05.543Z,98500.88
2023-01-22T02:10:33.273Z,98506.66
2023-01-22T02:13:07.836Z,98505.84
2023-01-22T02:15:37.881Z,98499.38
2023-01-22T02:18:05.587Z,98508.03
2023-01-22T02:20:40.526Z,98509.72
2023-01-22T02:23:08.590Z,98512.44
2023-01-22T02:25:36.129Z,98523.34
2023-01-22T02:28:06.490Z,98511.22
2023-01-22T02:30:34.534Z,98522.50
2023-01-22T02:33:02.036Z,98508.47
2023-01-22T02:35:29.578Z,98522.91
2023-01-22T02:37:57.091Z,98525.53
2023-01-22T02:40:24.853Z,98517.66
2023-01-22T02:42:53.684Z,98511.50
2023-01-22T02:45:21.412Z,98539.03
2023-01-22T02:47:49.352Z,98523.75
2023-01-22T02:50:17.665Z,98524.16
2023-01-22T02:52:45.272Z,98527.19
2023-01-22T02:55:13.462Z,98519.47
2023-01-22T02:57:41.458Z,98517.81
2023-01-22T03:00:09.858Z,98524.16
2023-01-22T03:02:37.432Z,98531.72
2023-01-22T03:05:05.332Z,98522.25
2023-01-22T03:07:42.473Z,98528.13
2023-01-22T03:10:18.669Z,98530.91
2023-01-22T03:13:06.733Z,98531.72
2023-01-22T03:15:53.082Z,98522.91
2023-01-22T03:18:39.231Z,98525.78
2023-01-22T03:21:20.243Z,98529.38
2023-01-22T03:23:50.717Z,98532.81
2023-01-22T03:26:20.430Z,98539.84
2023-01-22T03:28:49.212Z,98537.78
2023-01-22T03:31:17.308Z,98535.59
2023-01-22T03:33:45.201Z,98534.06
2023-01-22T03:36:15.089Z,98544.13
2023-01-22T03:38:48.763Z,98538.50
2023-01-22T03:41:20.142Z,98543.16
2023-01-22T03:43:49.430Z,98542.06
2023-01-22T03:46:21.109Z,98544.25
2023-01-22T03:48:56.231Z,98558.59
2023-01-22T03:51:24.589Z,98550.75
2023-01-22T03:53:52.064Z,98555.00
2023-01-22T03:56:21.719Z,98560.13
2023-01-22T03:58:50.860Z,98551.84
2023-01-22T04:01:22.646Z,98559.03
2023-01-22T04:03:51.933Z,98562.31
2023-01-22T04:06:22.704Z,98564.94
2023-01-22T04:08:52.707Z,98583.53
2023-01-22T04:11:23.705Z,98571.00
2023-01-22T04:13:51.361Z,98566.88
2023-01-22T04:16:21.602Z,98565.47
2023-01-22T04:19:21.450Z,98567.97
2023-01-22T04:22:18.675Z,98567.69
2023-01-22T04:24:48.867Z,98574.84
2023-01-22T04:27:16.940Z,98572.66
2023-01-22T04:29:44.448Z,98571.84
2023-01-22T04:32:12.101Z,98573.75
2023-01-22T04:35:05.313Z,98574.72
2023-01-22T04:37:37.538Z,98570.44
2023-01-22T04:40:05.821Z,98573.31
2023-01-22T04:42:36.507Z,98572.38
2023-01-22T04:45:05.461Z,98575.66
2023-01-22T04:47:33.380Z,98573.88
2023-01-22T04:50:01.012Z,98569.50
2023-01-22T04:52:28.558Z,98580.63
2023-01-22T04:54:56.088Z,98579.00
2023-01-22T04:57:27.763Z,98578.00
2023-01-22T04:59:55.967Z,98579.00
2023-01-22T05:02:23.543Z,98583.41
2023-01-22T05:04:52.372Z,98578.16
2023-01-22T05:07:20.472Z,98580.91
2023-01-22T05:09:48.104Z,98580.63
2023-01-22T05:12:16.117Z,98580.34
2023-01-22T05:14:45.112Z,98588.09
2023-01-22T05:17:12.856Z,98585.75
2023-01-22T05:19:40.551Z,98587.66
2023-01-22T05:22:13.282Z,98587.66
2023-01-22T05:24:41.246Z,98593.88
2023-01-22T05:27:08.871Z,98587.81
2023-01-22T05:29:46.662Z,98596.50
2023-01-22T05:32:33.024Z,98599.09
2023-01-22T05:35:05.053Z,98602.53
2023-01-22T05:37:35.821Z,98601.56
2023-01-22T05:40:05.647Z,98609.84
2023-01-22T05:42:35.406Z,98605.16
2023-01-22T05:45:05.408Z,98611.22
2023-01-22T05:47:36.292Z,98605.00
2023-01-22T05:50:26.843Z,98612.59
2023-01-22T05:53:03.464Z,98609.03
2023-01-22T05:55:32.118Z,98612.03
2023-01-22T05:57:59.883Z,98612.59
2023-01-22T06:00:28.649Z,98612.75
2023-01-22T06:03:01.345Z,98619.78
2023-01-22T06:05:32.516Z,98616.88
2023-01-22T06:08:05.961Z,98618.78
2023-01-22T06:10:41.453Z,98623.31
2023-01-22T06:13:09.517Z,98621.56
2023-01-22T06:15:37.148Z,98631.44
2023-01-22T06:18:20.934Z,98629.41
2023-01-22T06:20:48.675Z,98639.19
2023-01-22T06:23:17.172Z,98643.72
2023-01-22T06:25:45.081Z,98648.13
2023-01-22T06:28:17.675Z,98646.34
2023-01-22T06:30:46.145Z,98648.81
2023-01-22T06:33:14.135Z,98653.91
2023-01-22T06:35:41.952Z,98653.53
2023-01-22T06:38:09.602Z,98665.78
2023-01-22T06:40:37.448Z,98659.44
2023-01-22T06:43:10.564Z,98664.25
2023-01-22T06:45:39.401Z,98664.38
2023-01-22T06:48:09.344Z,98664.53
2023-01-22T06:50:36.912Z,98667.16
2023-01-22T06:53:04.479Z,98673.31
2023-01-22T06:55:32.284Z,98672.13
2023-01-22T06:57:59.924Z,98671.03
2023-01-22T07:00:27.524Z,98678.88
2023-01-22T07:02:55.033Z,98683.13
2023-01-22T07:05:23.261Z,98688.09
2023-01-22T07:07:54.821Z,98692.53
2023-01-22T07:10:22.583Z,98688.63
2023-01-22T07:12:54.296Z,98685.22
2023-01-22T07:15:22.161Z,98688.09
2023-01-22T07:17:53.862Z,98685.06
2023-01-22T07:20:23.607Z,98692.53
2023-01-22T07:22:52.092Z,98695.53
2023-01-22T07:25:20.064Z,98695.53
2023-01-22T07:27:47.723Z,98711.13
2023-01-22T07:30:15.415Z,98714.56
2023-01-22T07:32:42.963Z,98718.16
2023-01-22T07:35:10.504Z,98725.03
2023-01-22T07:37:37.980Z,98724.78
2023-01-22T07:40:06.197Z,98720.63
2023-01-22T07:42:33.696Z,98726.13
2023-01-22T07:45:02.243Z,98725.03
2023-01-22T07:47:29.774Z,98731.09
2023-01-22T07:49:57.191Z,98731.69
2023-01-22T07:52:24.789Z,98739.00
2023-01-22T07:54:52.257Z,98739.28
2023-01-22T07:57:19.788Z,98735.81
2023-01-22T07:59:47.254Z,98737.88
2023-01-22T08:02:15.835Z,98737.06
2023-01-22T08:04:43.748Z,98745.91
2023-01-22T08:07:20.473Z,98746.28
2023-01-22T08:09:47.991Z,98749.34
2023-01-22T08:12:15.515Z,98755.41
2023-01-22T08:14:43.014Z,98756.81
2023-01-22T08:17:10.562Z,98759.97
2023-01-22T08:19:38.183Z,98750.31
2023-01-22T08:22:06.074Z,98764.78
2023-01-22T08:24:34.753Z,98765.06
2023-01-22T08:27:02.952Z,98771.13
2023-01-22T08:29:30.499Z,98767.84
2023-01-22T08:31:58.007Z,98769.50
2023-01-22T08:34:25.623Z,98775.28
2023-01-22T08:36:53.071Z,98781.59
2023-01-22T08:39:20.645Z,98779.53
2023-01-22T08:41:48.078Z,98783.00
2023-01-22T08:44:15.696Z,98781.50
2023-01-22T08:46:43.203Z,98783.84
2023-01-22T08:49:10.809Z,98783.56
2023-01-22T08:51:38.278Z,98783.00
2023-01-22T08:54:06.019Z,98784.00
2023-01-22T08:56:33.472Z,98784.00
2023-01-22T08:59:06.647Z,98785.47
2023-01-22T09:01:34.655Z,98783.56
2023-01-22T09:04:02.104Z,98789.34
2023-01-22T09:06:29.648Z,98790.59
2023-01-22T09:08:59.019Z,98788.09
2023-01-22T09:11:26.761Z,98793.88
2023-01-22T09:13:56.358Z,98789.59
2023-01-22T09:16:24.842Z,98788.53
2023-01-22T09:18:52.510Z,98789.88
2023-01-22T09:21:20.541Z,98784.50
2023-01-22T09:23:48.031Z,98783.94
2023-01-22T09:26:15.731Z,98783.00
2023-01-22T09:28:43.213Z,98785.09
2023-01-22T09:31:13.621Z,98794.84
2023-01-22T09:33:41.144Z,98788.78
2023-01-22T09:36:14.163Z,98797.31
2023-01-22T09:38:42.808Z,98810.00
2023-01-22T09:41:30.356Z,98808.06
2023-01-22T09:44:06.433Z,98806.72
2023-01-22T09:46:41.711Z,98809.50
2023-01-22T09:49:17.663Z,98812.38
2023-01-22T09:51:54.975Z,98833.19
2023-01-22T09:54:23.112Z,98817.72
2023-01-22T09:56:53.633Z,98820.69
2023-01-22T09:59:27.161Z,98831.53
2023-01-22T10:02:12.598Z,98824.41
2023-01-22T10:04:46.928Z,98827.84
2023-01-22T10:07:24.272Z,98827.13
2023-01-22T10:09:55.988Z,98823.59
2023-01-22T10:12:23.569Z,98825.94
2023-01-22T10:14:52.936Z,98822.31
2023-01-22T10:17:25.111Z,98824.94
2023-01-22T10:19:58.427Z,98817.19
2023-01-22T10:22:27.784Z,98816.63
2023-01-22T10:24:55.587Z,98819.13
2023-01-22T10:27:39.562Z,98821.16
2023-01-22T10:30:23.016Z,98822.44
2023-01-22T10:33:02.141Z,98823.25
2023-01-22T10:35:32.084Z,98823.66
2023-01-22T10:38:00.925Z,98834.69
2023-01-22T10:40:34.181Z,98827.78
2023-01-22T10:43:18.672Z,98832.22
2023-01-22T10:45:58.827Z,98829.91
2023-01-22T10:48:26.621Z,98832.69
2023-01-22T10:55:07.554Z,98831.84
2023-01-22T10:57:37.028Z,98826.56
2023-01-22T11:00:07.722Z,98826.47
2023-01-22T11:02:36.408Z,98824.94
2023-01-22T11:05:25.226Z,98822.16
2023-01-22T11:08:03.594Z,98822.97
2023-01-22T11:10:31.114Z,98826.00
2023-01-22T11:13:06.932Z,98820.59
2023-01-22T11:15:44.085Z,98832.19
2023-01-22T11:18:22.532Z,98833.03
2023-01-22T11:20:55.162Z,98837.81
2023-01-22T11:23:34.797Z,98843.25
2023-01-22T11:26:31.800Z,98836.31
2023-01-22T11:29:11.549Z,98843.31
2023-01-22T11:32:07.824Z,98832.03
2023-01-22T11:34:52.530Z,98832.03
2023-01-22T11:37:36.480Z,98829.81
2023-01-22T11:40:13.010Z,98824.28
2023-01-22T11:43:09.787Z,98827.63
2023-01-22T11:45:54.740Z,98815.06
2023-01-22T11:48:24.963Z,98819.50
2023-01-22T11:51:03.743Z,98814.22
2023-01-22T11:53:53.048Z,98795.63
2023-01-22T11:56:50.105Z,98807.72
2023-01-22T11:59:35.824Z,98819.59
2023-01-22T12:02:30.910Z,98815.50
2023-01-22T12:05:40.296Z,98822.91
2023-01-22T12:08:18.441Z,98820.19
2023-01-22T12:11:07.341Z,98810.78
2023-01-22T12:14:29.752Z,98797.16
2023-01-22T12:17:05.044Z,98810.78
2023-01-22T12:19:53.151Z,98813.78
2023-01-22T12:22:26.732Z,98807.72
2023-01-22T12:25:16.327Z,98804.03
2023-01-22T12:27:47.619Z,98810.88
2023-01-22T12:30:25.637Z,98820.25
2023-01-22T12:33:00.314Z,98810.72
2023-01-22T12:35:31.529Z,98810.03
2023-01-22T12:38:27.789Z,98812.69
2023-01-22T12:41:31.952Z,98810.03
2023-01-22T12:44:25.789Z,98812.66
2023-01-22T12:47:02.393Z,98812.41
2023-01-22T12:49:29.991Z,98811.16
2023-01-22T12:52:00.670Z,98811.72
2023-01-22T12:54:32.581Z,98805.38
2023-01-22T12:57:14.562Z,98806.50
2023-01-22T12:59:43.901Z,98810.19
2023-01-22T13:02:36.495Z,98803.88
2023-01-22T13:05:20.440Z,98815.84
2023-01-22T13:07:48.960Z,98826.06
2023-01-22T13:10:32.008Z,98823.28
2023-01-22T13:13:13.259Z,98823.88
2023-01-22T13:15:42.180Z,98824.97
2023-01-22T13:18:31.708Z,98817.13
2023-01-22T13:21:06.661Z,98826.31
2023-01-22T13:23:42.030Z,98823.00
2023-01-22T13:26:25.192Z,98822.72
2023-01-22T13:29:21.148Z,98835.56
2023-01-22T13:32:01.462Z,98839.00
2023-01-22T13:34:30.064Z,98839.84
2023-01-22T13:36:58.020Z,98843.16
2023-01-22T13:39:33.315Z,98843.03
2023-01-22T13:42:05.554Z,98840.28
2023-01-22T13:44:39.980Z,98832.69
2023-01-22T13:47:08.007Z,98830.09
2023-01-22T13:49:42.975Z,98830.69
2023-01-22T13:52:15.449Z,98830.09
2023-01-22T13:54:58.578Z,98838.63
2023-01-22T13:57:26.186Z,98832.59
2023-01-22T14:00:01.430Z,98831.22
2023-01-22T14:02:31.665Z,98839.44
2023-01-22T14:04:59.371Z,98834.50
2023-01-22T14:07:28.780Z,98850.75
2023-01-22T14:09:57.841Z,98853.34
2023-01-22T14:12:27.200Z,98858.63
2023-01-22T14:14:55.050Z,98858.59
2023-01-22T14:17:34.330Z,98852.41
2023-01-22T14:20:02.847Z,98851.81
2023-01-22T14:22:30.431Z,98857.66
2023-01-22T14:24:58.123Z,98852.69
2023-01-22T14:27:43.669Z,98855.97
2023-01-22T14:30:14.706Z,98850.19
2023-01-22T14:32:43.736Z,98849.81
2023-01-22T14:35:19.754Z,98855.16
2023-01-22T14:37:47.779Z,98849.91
2023-01-22T14:40:17.721Z,98846.03
2023-01-22T14:42:47.528Z,98847.28
2023-01-22T14:45:16.770Z,98841.34
2023-01-22T14:47:44.563Z,98842.22
2023-01-22T14:50:12.196Z,98841.63
2023-01-22T14:52:39.778Z,98845.19
2023-01-22T14:55:07.611Z,98842.72
2023-01-22T14:57:35.114Z,98850.44
2023-01-22T15:00:04.856Z,98860.34
2023-01-22T15:02:32.793Z,98860.47
2023-01-22T15:05:00.368Z,98863.41
2023-01-22T15:07:27.848Z,98869.75
2023-01-22T15:09:55.324Z,98863.53
2023-01-22T15:12:23.591Z,98867.38
2023-01-22T15:14:51.040Z,98872.06
2023-01-22T15:17:18.523Z,98871.19
2023-01-22T15:19:46.028Z,98868.56
2023-01-22T15:22:14.142Z,98869.69
2023-01-22T15:24:43.854Z,98865.41
2023-01-22T15:27:11.784Z,98874.47
2023-01-22T15:29:39.268Z,98870.78
2023-01-22T15:32:06.727Z,98871.59
2023-01-22T15:34:34.309Z,98876.13
2023-01-22T15:37:03.076Z,98877.81
2023-01-22T15:39:31.191Z,98878.75
2023-01-22T15:41:58.681Z,98877.81
2023-01-22T15:44:26.233Z,98885.91
2023-01-22T15:46:54.065Z,98887.69
2023-01-22T15:49:21.554Z,98884.38
2023-01-22T15:51:49.016Z,98891.16
2023-01-22T15:54:16.951Z,98894.72
2023-01-22T15:56:44.824Z,98895.16
2023-01-22T15:59:12.758Z,98897.06
2023-01-22T16:01:40.434Z,98905.38
2023-01-22T16:04:08.672Z,98909.34
2023-01-22T16:06:36.455Z,98918.47
2023-01-22T16:09:06.206Z,98924.78
2023-01-22T16:11:34.535Z,98927.97
2023-01-22T16:14:02.124Z,98930.22
2023-01-22T16:16:38.103Z,98940.78
2023-01-22T16:19:08.000Z,98940.47
2023-01-22T16:21:35.808Z,98932.53
2023-01-22T16:24:03.977Z,98944.38
2023-01-22T16:26:33.981Z,98936.97
2023-01-22T16:29:04.205Z,98937.25
2023-01-22T16:31:34.261Z,98936.13
2023-01-22T16:34:08.997Z,98942.03
2023-01-22T16:36:37.485Z,98952.81
2023-01-22T16:39:05.341Z,98944.25
2023-01-22T16:41:35.144Z,98942.06
2023-01-22T16:44:11.958Z,98950.91
2023-01-22T16:46:41.645Z,98945.78
2023-01-22T16:49:28.446Z,98951.41
2023-01-22T16:52:00.302Z,98951.56
2023-01-22T16:54:33.373Z,98954.78
2023-01-22T16:57:04.069Z,98953.78
2023-01-22T16:59:33.144Z,98957.66
2023-01-22T17:02:02.681Z,98954.59
2023-01-22T17:04:30.373Z,98961.22
2023-01-22T17:06:59.245Z,98954.34
2023-01-22T17:09:32.341Z,98952.94
2023-01-22T17:12:02.371Z,98958.50
2023-01-22T17:14:32.201Z,98961.13
2023-01-22T17:16:59.741Z,98964.66
2023-01-22T17:19:27.816Z,98962.19
2023-01-22T17:21:59.093Z,98968.00
2023-01-22T17:24:28.222Z,98971.03
2023-01-22T17:26:58.049Z,98974.47
2023-01-22T17:29:25.953Z,98979.69
2023-01-22T17:31:53.708Z,98981.09
2023-01-22T17:34:21.379Z,98984.69
2023-01-22T17:36:51.514Z,98992.38
2023-01-22T17:39:21.192Z,98989.34
2023-01-22T17:41:48.746Z,98995.78
2023-01-22T17:44:16.273Z,98992.06
2023-01-22T17:46:43.918Z,99004.09
2023-01-22T17:49:11.737Z,99004.91
2023-01-22T17:51:39.272Z,99000.50
2023-01-22T17:54:06.824Z,99006.00
2023-01-22T17:56:36.740Z,99010.03
2023-01-22T17:59:06.617Z,99017.19
2023-01-22T18:01:36.891Z,99019.78
2023-01-22T18:04:07.359Z,99027.41
2023-01-22T18:06:36.083Z,99025.13
2023-01-22T18:09:05.811Z,99032.63
2023-01-22T18:11:34.872Z,99025.75
2023-01-22T18:14:06.847Z,99026.69
2023-01-22T18:16:37.522Z,99031.25
2023-01-22T18:19:07.504Z,99030.28
2023-01-22T18:21:37.206Z,99042.41
2023-01-22T18:24:06.845Z,99035.72
2023-01-22T18:26:35.837Z,99041.47
2023-01-22T18:29:04.056Z,99049.41
2023-01-22T18:31:31.672Z,99050.38
2023-01-22T18:34:02.362Z,99059.78
2023-01-22T18:36:32.622Z,99048.34
2023-01-22T18:39:06.972Z,99053.25
2023-01-22T18:41:36.393Z,99053.84
2023-01-22T18:44:04.138Z,99052.88
2023-01-22T18:46:34.634Z,99058.81
2023-01-22T18:49:11.041Z,99058.25
2023-01-22T18:51:40.390Z,99059.56
2023-01-22T18:54:08.816Z,99061.94
2023-01-22T18:56:37.704Z,99060.03
2023-01-22T18:59:05.862Z,99065.28
2023-01-22T19:01:36.175Z,99069.66
2023-01-22T19:04:07.049Z,99074.88
2023-01-22T19:06:37.367Z,99081.09
2023-01-22T19:09:06.513Z,99073.22
2023-01-22T19:11:37.440Z,99076.09
2023-01-22T19:14:07.267Z,99078.38
2023-01-22T19:16:36.758Z,99078.38
2023-01-22T19:19:11.386Z,99086.41
2023-01-22T19:21:47.072Z,99077.00
2023-01-22T19:24:17.143Z,99084.03
2023-01-22T19:26:46.674Z,99088.19
2023-01-22T19:29:19.869Z,99093.44
2023-01-22T19:31:52.146Z,99093.19
2023-01-22T19:34:26.001Z,99099.63
2023-01-22T19:37:01.340Z,99101.28
2023-01-22T19:39:29.336Z,99110.09
2023-01-22T19:42:02.352Z,99109.63
2023-01-22T19:44:30.840Z,99107.75
2023-01-22T19:47:00.347Z,99110.22
2023-01-22T19:49:28.373Z,99114.53
2023-01-22T19:51:55.984Z,99120.59
2023-01-22T19:54:24.803Z,99118.78
2023-01-22T19:56:53.300Z,99114.13
2023-01-22T19:59:23.389Z,99112.34
2023-01-22T20:01:51.417Z,99114.91
2023-01-22T20:04:28.872Z,99121.38
2023-01-22T20:06:58.909Z,99118.88
2023-01-22T20:09:27.048Z,99120.75
2023-01-22T20:11:56.259Z,99125.19
2023-01-22T20:14:26.243Z,99122.31
2023-01-22T20:16:54.404Z,99122.31
2023-01-22T20:19:22.154Z,99123.38
2023-01-22T20:21:49.846Z,99126.25
2023-01-22T20:24:17.440Z,99132.09
2023-01-22T20:26:45.014Z,99124.50
2023-01-22T20:29:13.032Z,99130.66
2023-01-22T20:31:40.628Z,99124.50
2023-01-22T20:34:08.234Z,99124.59
2023-01-22T20:36:35.733Z,99134.97
2023-01-22T20:39:04.212Z,99136.88
2023-01-22T20:41:32.412Z,99134.25
2023-01-22T20:44:00.099Z,99137.69
2023-01-22T20:46:28.099Z,99134.00
2023-01-22T20:48:58.184Z,99140.91
2023-01-22T20:51:28.537Z,99148.31
2023-01-22T20:53:57.327Z,99146.38
2023-01-22T20:56:30.424Z,99146.63
2023-01-22T20:59:04.067Z,99150.94
2023-01-22T21:01:32.595Z,99152.94
2023-01-22T21:04:01.603Z,99159.28
2023-01-22T21:06:31.171Z,99150.56
2023-01-22T21:09:01.289Z,99158.31
2023-01-22T21:11:31.088Z,99161.19
2023-01-22T21:14:00.062Z,99162.72
2023-01-22T21:16:30.370Z,99167.00
2023-01-22T21:19:03.711Z,99166.03
2023-01-22T21:21:32.426Z,99176.50
2023-01-22T21:24:00.630Z,99174.59
2023-01-22T21:26:31.241Z,99183.28
2023-01-22T21:29:05.141Z,99188.53
2023-01-22T21:31:32.773Z,99186.63
2023-01-22T21:34:05.277Z,99196.38
2023-01-22T21:36:45.198Z,99200.94
2023-01-22T21:39:16.204Z,99195.56
2023-01-22T21:41:44.145Z,99196.97
2023-01-22T21:44:36.912Z,99199.47
2023-01-22T21:47:05.106Z,99201.13
2023-01-22T21:49:34.974Z,99205.28
2023-01-22T21:52:09.561Z,99206.69
2023-01-22T21:54:39.752Z,99207.16
2023-01-22T21:57:09.462Z,99207.63
2023-01-22T21:59:37.148Z,99210.63
2023-01-22T22:02:05.889Z,99211.44
2023-01-22T22:04:34.301Z,99206.19
2023-01-22T22:07:01.959Z,99205.94
2023-01-22T22:09:30.771Z,99214.53
2023-01-22T22:12:00.341Z,99219.78
2023-01-22T22:14:28.171Z,99217.03
2023-01-22T22:16:56.435Z,99220.69
2023-01-22T22:19:25.181Z,99224.09
2023-01-22T22:21:52.921Z,99222.19
2023-01-22T22:24:20.815Z,99233.19
2023-01-22T22:26:48.480Z,99232.59
2023-01-22T22:29:16.035Z,99236.88
2023-01-22T22:31:43.646Z,99224.97
2023-01-22T22:34:11.298Z,99235.78
2023-01-22T22:36:39.262Z,99237.09
2023-01-22T22:39:06.930Z,99237.34
2023-01-22T22:41:37.022Z,99244.22
2023-01-22T22:44:05.661Z,99234.31
2023-01-22T22:46:35.895Z,99243.16
2023-01-22T22:49:04.582Z,99241.38
2023-01-22T22:51:35.951Z,99246.50
2023-01-22T22:54:06.399Z,99233.50
2023-01-22T22:56:34.493Z,99241.88
2023-01-22T22:59:03.183Z,99246.41
2023-01-22T23:01:35.645Z,99247.00
2023-01-22T23:04:03.694Z,99253.06
2023-01-22T23:06:33.333Z,99255.78
2023-01-22T23:09:12.364Z,99260.44
2023-01-22T23:11:40.400Z,99267.41
2023-01-22T23:14:08.565Z,99268.47
2023-01-22T23:16:43.462Z,99273.00
2023-01-22T23:19:16.407Z,99271.94
2023-01-22T23:21:44.765Z,99278.03
2023-01-22T23:24:13.929Z,99271.25
2023-01-22T23:26:43.482Z,99271.34
2023-01-22T23:29:13.189Z,99268.72
2023-01-22T23:31:41.097Z,99272.31
2023-01-22T23:34:12.883Z,99271.34
2023-01-22T23:36:43.754Z,99274.44
2023-01-22T23:39:15.707Z,99279.69
2023-01-22T23:41:44.385Z,99277.31
2023-01-22T23:44:12.599Z,99279.09
2023-01-22T23:46:40.804Z,99282.06
2023-01-22T23:49:08.435Z,99281.34
2023-01-22T23:51:38.343Z,99290.16
2023-01-22T23:54:05.868Z,99286.97
2023-01-22T23:56:33.362Z,99295.06
2023-01-22T23:59:00.936Z,99297.78
